createdAt,value
2023-03-26T00:03:20.481Z,145602.84
2023-03-26T00:08:24.437Z,145601.59
2023-03-26T00:13:28.234Z,145604.06
2023-03-26T00:18:31.891Z,145605.31
2023-03-26T00:23:36.432Z,145599.16
2023-03-26T00:28:40.413Z,145588.03
2023-03-26T00:33:43.706Z,145574.47
2023-03-26T00:38:49.502Z,145565.81
2023-03-26T00:43:56.215Z,145574.47
2023-03-26T00:48:59.766Z,145583.13
2023-03-26T00:54:04.682Z,145594.22
2023-03-26T00:59:09.265Z,145594.22
2023-03-26T01:04:28.122Z,145594.22
2023-03-26T01:09:36.047Z,145596.69
2023-03-26T01:14:39.145Z,145597.91
2023-03-26T01:19:48.597Z,145596.69
2023-03-26T01:24:56.202Z,145600.38
2023-03-26T01:30:06.772Z,145604.06
2023-03-26T01:35:21.315Z,145604.06
2023-03-26T01:40:29.362Z,145611.47
2023-03-26T01:45:35.916Z,145618.88
2023-03-26T01:50:38.567Z,145609.00
2023-03-26T01:55:53.882Z,145599.16
2023-03-26T02:01:04.354Z,145581.88
2023-03-26T02:06:15.720Z,145559.63
2023-03-26T02:11:20.091Z,145537.44
2023-03-26T02:16:22.734Z,145546.06
2023-03-26T02:21:27.178Z,145542.38
2023-03-26T02:26:33.164Z,145547.31
2023-03-26T02:31:35.902Z,145569.53
2023-03-26T02:36:42.880Z,145588.03
2023-03-26T02:41:46.869Z,145601.59
2023-03-26T02:46:51.484Z,145602.84
2023-03-26T02:51:56.380Z,145568.25
2023-03-26T02:57:00.501Z,145557.16
2023-03-26T03:02:03.307Z,145569.53
2023-03-26T03:07:07.944Z,145581.88
2023-03-26T03:12:11.882Z,145600.38
2023-03-26T03:17:14.420Z,145606.53
2023-03-26T03:22:16.986Z,145607.78
2023-03-26T03:27:22.327Z,145616.41
2023-03-26T03:32:24.971Z,145611.47
2023-03-26T03:37:27.594Z,145630.03
2023-03-26T03:42:31.581Z,145628.78
2023-03-26T03:47:34.427Z,145611.47
2023-03-26T03:52:37.078Z,145617.66
2023-03-26T03:57:41.248Z,145618.88
2023-03-26T04:02:46.136Z,145633.72
2023-03-26T04:07:48.843Z,145637.44
2023-03-26T04:12:52.855Z,145642.38
2023-03-26T04:17:55.507Z,145647.31
2023-03-26T04:22:58.112Z,145654.69
2023-03-26T04:28:14.917Z,145667.03
2023-03-26T04:33:17.531Z,145664.56
2023-03-26T04:38:20.133Z,145663.34
2023-03-26T04:43:24.018Z,145668.28
2023-03-26T04:48:27.543Z,145655.94
2023-03-26T04:53:39.229Z,145654.69
2023-03-26T04:58:43.427Z,145657.16
2023-03-26T05:03:46.251Z,145653.47
2023-03-26T05:08:51.108Z,145642.38
2023-03-26T05:13:55.045Z,145639.91
2023-03-26T05:18:57.573Z,145613.94
2023-03-26T05:24:00.528Z,145594.22
2023-03-26T05:29:05.692Z,145590.50
2023-03-26T05:34:08.291Z,145591.75
2023-03-26T05:39:10.929Z,145604.06
2023-03-26T05:44:14.867Z,145600.38
2023-03-26T05:49:17.503Z,145615.19
2023-03-26T05:54:20.102Z,145625.06
2023-03-26T05:59:24.229Z,145628.78
2023-03-26T06:04:28.645Z,145648.53
2023-03-26T06:09:31.559Z,145670.75
2023-03-26T06:14:35.546Z,145702.88
2023-03-26T06:19:38.254Z,145713.97
2023-03-26T06:24:41.921Z,145732.47
2023-03-26T06:29:45.922Z,145749.81
2023-03-26T06:34:49.565Z,145755.97
2023-03-26T06:39:52.245Z,145757.22
2023-03-26T06:44:56.364Z,145749.81
2023-03-26T06:49:59.121Z,145741.16
2023-03-26T06:55:10.723Z,145748.56
2023-03-26T07:00:35.597Z,145742.41
2023-03-26T07:05:39.552Z,145733.72
2023-03-26T07:10:42.435Z,145742.41
2023-03-26T07:15:51.745Z,145752.28
2023-03-26T07:20:56.288Z,145789.28
2023-03-26T07:26:03.375Z,145810.31
2023-03-26T07:31:25.000Z,145811.56
2023-03-26T07:36:36.098Z,145821.44
2023-03-26T07:41:47.177Z,145835.00
2023-03-26T07:46:53.372Z,145831.31
2023-03-26T07:51:57.779Z,145799.22
2023-03-26T07:57:05.983Z,145811.56
2023-03-26T08:02:41.301Z,145768.31
2023-03-26T08:07:57.222Z,145754.75
2023-03-26T08:13:11.587Z,145767.06
2023-03-26T08:18:27.714Z,145762.16
2023-03-26T08:23:36.025Z,145809.09
2023-03-26T08:29:03.968Z,145795.47
2023-03-26T08:34:12.101Z,145826.38
2023-03-26T08:39:16.133Z,145873.31
2023-03-26T08:45:09.246Z,145932.63
2023-03-26T08:50:41.293Z,145910.38
2023-03-26T08:55:53.788Z,145900.47
2023-03-26T09:01:27.716Z,145909.13
2023-03-26T09:07:06.862Z,145877.03
2023-03-26T09:12:40.793Z,145878.25
2023-03-26T09:18:16.988Z,145868.38
2023-03-26T09:23:32.142Z,145843.66
2023-03-26T09:29:18.032Z,145849.81
2023-03-26T09:34:29.965Z,145860.97
2023-03-26T09:39:43.711Z,145870.84
2023-03-26T09:45:21.072Z,145893.06
2023-03-26T09:50:36.914Z,145914.13
2023-03-26T09:55:52.294Z,145932.63
2023-03-26T10:01:05.672Z,145946.22
2023-03-26T10:06:28.226Z,145982.06
2023-03-26T10:11:52.606Z,145963.50
2023-03-26T10:17:07.656Z,145984.59
2023-03-26T10:22:25.343Z,146004.34
2023-03-26T10:27:44.943Z,145972.19
2023-03-26T10:32:56.490Z,145931.41
2023-03-26T10:38:14.643Z,145858.50
2023-03-26T10:43:38.798Z,145856.03
2023-03-26T10:49:01.029Z,145775.72
2023-03-26T10:54:12.153Z,145769.53
2023-03-26T10:59:17.982Z,145800.44
2023-03-26T11:04:31.870Z,145802.91
2023-03-26T11:09:40.215Z,145809.09
2023-03-26T11:14:54.682Z,145820.19
2023-03-26T11:20:04.418Z,145848.59
2023-03-26T11:25:35.883Z,145885.66
2023-03-26T11:30:47.968Z,145967.22
2023-03-26T11:35:52.363Z,146003.13
2023-03-26T11:40:59.091Z,145999.41
2023-03-26T11:46:05.972Z,145974.66
2023-03-26T11:51:14.816Z,145965.97
2023-03-26T11:56:29.738Z,145962.28
2023-03-26T12:01:50.431Z,145954.84
2023-03-26T12:06:57.929Z,145925.22
2023-03-26T12:12:03.539Z,145932.63
2023-03-26T12:17:10.397Z,145893.06
2023-03-26T12:22:30.686Z,145888.13
2023-03-26T12:27:33.458Z,145898.00
2023-03-26T12:32:46.738Z,145884.44
2023-03-26T12:37:49.703Z,145943.75
2023-03-26T12:44:45.936Z,145961.03
2023-03-26T12:48:25.524Z,145914.13
2023-03-26T12:53:42.991Z,145926.47
2023-03-26T12:59:06.883Z,146027.81
2023-03-26T13:04:28.772Z,146089.69
2023-03-26T13:09:54.065Z,146114.38
2023-03-26T13:15:09.809Z,146093.38
2023-03-26T13:20:29.099Z,146170.03
2023-03-26T13:25:38.938Z,146277.66
2023-03-26T13:30:50.063Z,146239.28
2023-03-26T13:36:24.069Z,146177.44
2023-03-26T13:41:41.389Z,146150.25
2023-03-26T13:46:48.503Z,146171.28
2023-03-26T13:51:59.764Z,146225.69
2023-03-26T13:57:13.277Z,146214.56
2023-03-26T14:02:27.989Z,146219.50
2023-03-26T14:07:40.234Z,146161.38
2023-03-26T14:12:52.448Z,146145.31
2023-03-26T14:18:06.237Z,146217.03
2023-03-26T14:23:27.533Z,146259.13
2023-03-26T14:28:56.136Z,146251.66
2023-03-26T14:34:35.010Z,146202.22
2023-03-26T14:40:23.131Z,146182.38
2023-03-26T14:45:44.982Z,146199.69
2023-03-26T14:51:08.166Z,146179.91
2023-03-26T14:56:43.566Z,146083.44
2023-03-26T15:02:39.498Z,146016.72
2023-03-26T15:08:05.989Z,146048.88
2023-03-26T15:13:35.344Z,145959.81
2023-03-26T15:19:17.856Z,145927.69
2023-03-26T15:24:50.885Z,145915.34
2023-03-26T15:30:25.016Z,145856.03
2023-03-26T15:35:57.482Z,145826.38
2023-03-26T15:41:16.581Z,145811.56
2023-03-26T15:46:35.941Z,145797.94
2023-03-26T15:51:47.726Z,145781.88
2023-03-26T15:57:17.595Z,145730.00
2023-03-26T16:02:37.437Z,145702.88
2023-03-26T16:07:53.675Z,145681.84
2023-03-26T16:13:23.835Z,145667.03
2023-03-26T16:18:30.587Z,145641.13
2023-03-26T16:23:47.803Z,145659.63
2023-03-26T16:29:18.061Z,145643.59
2023-03-26T16:34:27.976Z,145652.22
2023-03-26T16:39:42.349Z,145625.06
2023-03-26T16:44:52.919Z,145609.00
2023-03-26T16:50:10.649Z,145579.41
2023-03-26T16:55:27.307Z,145569.53
2023-03-26T17:00:48.071Z,145552.22
2023-03-26T17:06:06.346Z,145505.31
2023-03-26T17:11:22.929Z,145446.09
2023-03-26T17:16:31.121Z,145430.06
2023-03-26T17:21:47.348Z,145415.28
2023-03-26T17:26:58.394Z,145409.13
2023-03-26T17:32:08.676Z,145385.59
2023-03-26T17:37:28.991Z,145375.75
2023-03-26T17:42:33.636Z,145340.00
2023-03-26T17:47:40.384Z,145309.16
2023-03-26T17:52:53.989Z,145275.84
2023-03-26T17:57:58.884Z,145243.78
2023-03-26T18:03:05.514Z,145217.88
2023-03-26T18:08:37.069Z,145184.63
2023-03-26T18:13:55.481Z,145156.25
2023-03-26T18:19:00.631Z,145123.00
2023-03-26T18:24:06.964Z,145082.31
2023-03-26T18:29:14.092Z,145021.94
2023-03-26T18:34:18.830Z,144956.66
2023-03-26T18:39:22.713Z,144908.59
2023-03-26T18:44:25.419Z,144871.66
2023-03-26T18:49:29.750Z,144827.34
2023-03-26T18:54:36.630Z,144808.84
2023-03-26T18:59:45.441Z,144795.31
2023-03-26T19:04:50.248Z,144794.09
2023-03-26T19:09:56.668Z,144810.09
2023-03-26T19:15:07.676Z,144785.47
2023-03-26T19:20:16.397Z,144733.78
2023-03-26T19:25:24.593Z,144704.22
2023-03-26T19:30:31.747Z,144702.97
2023-03-26T19:35:38.718Z,144689.47
2023-03-26T19:40:44.816Z,144667.31
2023-03-26T19:46:00.487Z,144656.25
2023-03-26T19:51:06.137Z,144653.81
2023-03-26T19:56:18.768Z,144611.94
2023-03-26T20:01:23.825Z,144578.72
2023-03-26T20:06:42.452Z,144559.03
2023-03-26T20:11:47.463Z,144529.50
2023-03-26T20:16:50.130Z,144485.25
2023-03-26T20:21:52.808Z,144438.53
2023-03-26T20:26:56.730Z,144413.91
2023-03-26T20:31:59.292Z,144368.47
2023-03-26T20:37:01.904Z,144381.97
2023-03-26T20:42:06.271Z,144406.53
2023-03-26T20:47:10.455Z,144420.06
2023-03-26T20:52:15.399Z,144437.28
2023-03-26T20:57:20.166Z,144445.91
2023-03-26T21:02:23.387Z,144450.81
2023-03-26T21:07:27.068Z,144450.81
2023-03-26T21:12:34.099Z,144452.03
2023-03-26T21:17:37.488Z,144448.34
2023-03-26T21:22:47.020Z,144433.63
2023-03-26T21:28:01.390Z,144415.13
2023-03-26T21:33:05.256Z,144379.50
2023-03-26T21:38:09.381Z,144358.59
2023-03-26T21:43:13.966Z,144300.81
2023-03-26T21:48:18.303Z,144261.53
2023-03-26T21:53:22.357Z,144246.75
2023-03-26T21:58:42.494Z,144240.59
2023-03-26T22:03:56.217Z,144219.72
2023-03-26T22:09:00.787Z,144196.41
2023-03-26T22:14:04.944Z,144165.66
2023-03-26T22:19:07.498Z,144176.72
2023-03-26T22:24:10.078Z,144170.59
2023-03-26T22:29:14.195Z,144134.94
2023-03-26T22:34:16.760Z,144103.03
2023-03-26T22:39:19.408Z,144088.31
2023-03-26T22:44:23.347Z,144082.16
2023-03-26T22:49:27.471Z,144057.59
2023-03-26T22:54:30.042Z,144033.06
2023-03-26T22:59:33.968Z,144010.91
2023-03-26T23:04:37.692Z,143997.41
2023-03-26T23:09:40.365Z,143990.06
2023-03-26T23:14:44.442Z,143968.00
2023-03-26T23:19:46.963Z,143948.31
2023-03-26T23:24:49.565Z,143947.09
2023-03-26T23:29:53.552Z,143937.28
2023-03-26T23:34:56.399Z,143944.63
2023-03-26T23:40:00.448Z,143932.38
2023-03-26T23:45:04.468Z,143939.72
2023-03-26T23:50:08.191Z,143922.56
2023-03-26T23:55:10.949Z,143891.84
